createdAt,value
2016-10-07T09:34:18.415Z,38.64
2016-10-07T09:35:18.388Z,38.45
2016-10-07T09:36:18.413Z,38.54
2016-10-07T09:37:18.333Z,38.45
2016-10-07T09:38:18.344Z,38.46
2016-10-07T09:39:18.287Z,38.45
2016-10-07T09:40:18.286Z,37.96
2016-10-07T09:41:18.247Z,38.08
2016-10-07T09:42:18.219Z,38.08
2016-10-07T09:43:18.202Z,37.98
2016-10-07T09:44:18.181Z,37.6
2016-10-07T09:45:18.159Z,37.81
2016-10-07T09:46:18.140Z,37.7
2016-10-07T09:47:18.146Z,37.6
2016-10-07T09:48:18.099Z,37.52
2016-10-07T09:49:18.076Z,37.42
2016-10-07T09:50:18.062Z,37.7
2016-10-07T09:51:18.086Z,37.52
2016-10-07T09:52:18.010Z,37.5
2016-10-07T09:53:17.989Z,37.52
2016-10-07T09:54:17.975Z,37.12
2016-10-07T09:55:17.958Z,37.52
2016-10-07T09:56:17.925Z,37.6
2016-10-07T09:57:17.945Z,37.52
2016-10-07T09:58:17.893Z,37.5
2016-10-07T09:59:17.873Z,37.6
2016-10-07T10:00:17.851Z,37.6
2016-10-07T10:01:18.140Z,37.12
2016-10-07T10:02:17.821Z,37.7
2016-10-07T10:03:17.788Z,37.5
2016-10-07T10:04:17.772Z,37.4
2016-10-07T10:05:17.744Z,37.4
2016-10-07T10:06:17.728Z,37.7
2016-10-07T10:07:17.705Z,37.4
2016-10-07T10:08:17.689Z,37.7
2016-10-07T10:09:17.667Z,37.87
2016-10-07T10:10:17.641Z,37.58
2016-10-07T10:11:17.621Z,37.67
2016-10-07T10:12:17.602Z,38.16
2016-10-07T10:13:17.582Z,38.16
2016-10-07T10:14:17.565Z,38.35
2016-10-07T10:15:17.538Z,38.35
2016-10-07T10:16:17.524Z,38.45
2016-10-07T10:17:17.499Z,38.35
2016-10-07T10:18:17.483Z,38.35
2016-10-07T10:19:17.769Z,38.45
2016-10-07T10:20:17.440Z,38.25
2016-10-07T10:21:17.413Z,38.35
2016-10-07T10:22:17.399Z,38.45
2016-10-07T10:23:17.371Z,38.28
2016-10-07T10:24:17.358Z,38.08
2016-10-07T10:25:17.340Z,38.08
2016-10-07T10:26:17.315Z,38.08
2016-10-07T10:27:17.292Z,37.98
2016-10-07T10:28:17.270Z,38.08
2016-10-07T10:29:17.260Z,37.98
2016-10-07T10:30:17.228Z,38.08
2016-10-07T10:31:17.229Z,38.08
2016-10-07T10:32:17.186Z,38.08
2016-10-07T10:33:17.168Z,38.1
2016-10-07T10:34:17.154Z,37.52
2016-10-07T10:35:17.130Z,37.71
2016-10-07T10:36:17.111Z,37.42
2016-10-07T10:37:17.089Z,37.62
2016-10-07T10:38:17.068Z,37.71
2016-10-07T10:39:17.049Z,37.81
2016-10-07T10:40:17.030Z,37.52
2016-10-07T10:41:17.044Z,37.32
2016-10-07T10:42:16.982Z,37.71
2016-10-07T10:43:16.967Z,38
2016-10-07T10:44:17.254Z,37.42
2016-10-07T10:45:16.926Z,37.71
2016-10-07T10:46:16.905Z,37.52
2016-10-07T10:47:16.888Z,37.81
2016-10-07T10:48:16.866Z,37.62
2016-10-07T10:49:16.847Z,37.42
2016-10-07T10:50:16.865Z,37.52
2016-10-07T10:51:16.803Z,37.62
2016-10-07T10:52:16.784Z,37.62
2016-10-07T10:53:16.769Z,37.71
2016-10-07T10:54:16.744Z,37.7
2016-10-07T10:55:16.726Z,38.08
2016-10-07T10:56:16.699Z,37.7
2016-10-07T10:57:16.684Z,37.6
2016-10-07T10:58:16.661Z,38.08
2016-10-07T10:59:16.643Z,38.08
2016-10-07T11:00:16.617Z,38.08
2016-10-07T11:01:16.597Z,38.08
2016-10-07T11:02:16.577Z,37.98
2016-10-07T11:03:16.561Z,37.98
2016-10-07T11:04:16.536Z,38.16
2016-10-07T11:05:16.520Z,38.54
2016-10-07T11:06:16.499Z,38.54
2016-10-07T11:07:16.475Z,38.64
2016-10-07T11:08:16.463Z,38.54
2016-10-07T11:09:16.445Z,38.54
2016-10-07T11:10:16.421Z,38.54
2016-10-07T11:11:16.397Z,38.64
2016-10-07T11:12:16.380Z,38.54
2016-10-07T11:13:16.351Z,38.64
2016-10-07T11:14:16.335Z,38.45
2016-10-07T11:15:16.316Z,37.96
2016-10-07T11:16:16.288Z,37.98
2016-10-07T11:17:16.300Z,37.6
2016-10-07T11:18:16.253Z,37.79
2016-10-07T11:19:16.228Z,37.79
2016-10-07T11:20:16.208Z,37.79
2016-10-07T11:21:16.189Z,37.6
2016-10-07T11:22:16.173Z,37.6
2016-10-07T11:23:16.150Z,37.4
2016-10-07T11:24:16.127Z,37.3
2016-10-07T11:25:16.106Z,37.4
2016-10-07T11:26:16.087Z,37.4
2016-10-07T11:27:16.064Z,37.5
2016-10-07T11:28:16.050Z,36.94
2016-10-07T11:29:16.026Z,37.13
2016-10-07T11:30:16.014Z,37.04
2016-10-07T11:31:15.982Z,36.84
2016-10-07T11:32:15.966Z,36.65
2016-10-07T11:33:15.952Z,36.65
2016-10-07T11:34:15.923Z,36.36
2016-10-07T11:35:15.905Z,36.55
2016-10-07T11:36:15.892Z,36.55
2016-10-07T11:37:15.866Z,36.74
2016-10-07T11:38:15.844Z,36.46
2016-10-07T11:39:15.824Z,36.46
2016-10-07T11:40:15.804Z,36.36
2016-10-07T11:41:15.785Z,36.36
2016-10-07T11:42:16.085Z,36.36
2016-10-07T11:43:15.751Z,36.46
2016-10-07T11:44:15.726Z,36.36
2016-10-07T11:45:15.699Z,36.46
2016-10-07T11:46:15.708Z,36.46
2016-10-07T11:47:15.682Z,36.44
2016-10-07T11:48:15.671Z,36.55
2016-10-07T11:49:15.658Z,36.34
2016-10-07T11:50:15.601Z,36.72
2016-10-07T11:51:15.581Z,36.34
2016-10-07T11:52:15.557Z,36.44
2016-10-07T11:53:15.537Z,36.53
2016-10-07T11:54:15.521Z,36.72
2016-10-07T11:55:15.507Z,36.63
2016-10-07T11:56:15.482Z,36.8
2016-10-07T11:57:15.524Z,36.82
2016-10-07T11:58:15.435Z,36.9
2016-10-07T11:59:15.421Z,37.19
2016-10-07T12:00:15.397Z,37
2016-10-07T12:01:15.382Z,37
